Flight Track Log - Related Links

Times and Time Zones

All times are in EDT time to prevent confusion due to time zone crossing. See the N919QS flight status page for this flight to view local times or setup timezone preferences in your user account.

Time Position Orientation Groundspeed Altitude Reporting Facility
EDT Latitude Longitude Course Direction KTS MPH feet Rate Location/Type
Mon 05:15:33 PM 39.0333 -77.4500 339° North 241 277 4,900  Level Potomac TRACON
Mon 05:16:39 PM 39.1000 -77.4833 339° North 278 320 8,800 2,850 Climbing Potomac TRACON
Mon 05:17:33 PM 39.1667 -77.5333 330° Northwest 282 325 10,600 1,579 Climbing Potomac TRACON
Mon 05:19:30 PM 39.2964 -77.6272 331° Northwest 284 327 13,300 1,695 Climbing Washington Center
Mon 05:20:30 PM 39.3600 -77.6881 324° Northwest 279 321 15,600 2,085 Climbing Washington Center
Mon 05:21:28 PM 39.4275 -77.7517 324° Northwest 291 335 17,400 1,361 Climbing Washington Center
Mon 05:22:29 PM 39.5033 -77.8292 322° Northwest 320 368 18,300 1,131 Climbing Washington Center
Mon 05:23:30 PM 39.5597 -77.9333 305° West 347 399 19,700 1,438 Climbing Washington Center
Mon 05:24:30 PM 39.5967 -78.0583 291° West 357 411 21,200 1,541 Climbing Washington Center
Mon 05:25:58 PM 39.6531 -78.2372 292° West 376 433 23,500 1,369 Climbing Cleveland Center
Mon 05:26:59 PM 39.6889 -78.3603 291° West 371 427 24,600 1,100 Climbing Cleveland Center
Mon 05:27:58 PM 39.7247 -78.4858 290° West 371 427 25,700 958 Climbing Cleveland Center
Mon 05:28:58 PM 39.7644 -78.6142 292° West 371 427 26,500 750 Climbing Cleveland Center
Mon 05:29:58 PM 39.8189 -78.7533 297° West 384 442 27,200 850 Climbing Cleveland Center
Mon 05:30:58 PM 39.8772 -78.8761 302° West 389 448 28,200 1,200 Climbing Cleveland Center
Mon 05:31:58 PM 39.9417 -79.0017 304° West 404 465 29,600 1,450 Climbing Cleveland Center
Mon 05:32:58 PM 39.9994 -79.1222 302° West 404 465 31,100 1,240 Climbing Cleveland Center
Mon 05:33:59 PM 40.0553 -79.2458 301° West 404 465 32,100 950 Climbing Cleveland Center
Mon 05:34:58 PM 40.1150 -79.3722 302° West 404 465 33,000 958 Climbing Cleveland Center
Mon 05:35:58 PM 40.1725 -79.4961 301° West 404 465 34,000 1,000 Climbing Cleveland Center
Mon 05:36:58 PM 40.2319 -79.6231 302° West 404 465 35,000 1,000 Climbing Cleveland Center
Mon 05:37:58 PM 40.2914 -79.7528 301° West 404 465 36,000 1,000 Climbing Cleveland Center
Mon 05:38:58 PM 40.3506 -79.8831 301° West 404 465 37,000 1,000 Climbing Cleveland Center
Mon 05:39:58 PM 40.4014 -79.9997 300° West 409 471 38,000 1,000 Climbing Cleveland Center
Mon 05:40:58 PM 40.4603 -80.1275 301° West 414 476 39,000 1,000 Climbing Cleveland Center
Mon 05:41:58 PM 40.5192 -80.2553 301° West 414 476 40,000 950 Climbing Cleveland Center
Mon 05:42:58 PM 40.5778 -80.3753 303° West 409 471 40,900 1,000 Climbing Cleveland Center
Mon 05:43:58 PM 40.6361 -80.5147 299° West 391 450 42,000 942 Climbing Cleveland Center
Mon 05:44:59 PM 40.6842 -80.6186 301° West 386 444 42,800 500 Climbing Cleveland Center
Mon 05:45:58 PM 40.7342 -80.7392 299° West 386 444 43,000 50 Climbing Cleveland Center
Mon 05:46:58 PM 40.7839 -80.8711 296° West 381 438 42,900  Descending Cleveland Center
Mon 05:47:58 PM 40.8336 -81.0003 297° West 392 451 43,000 50 Climbing Cleveland Center
Mon 05:48:58 PM 40.8808 -81.1378 294° West 406 467 43,000  Level Cleveland Center
Mon 05:49:58 PM 40.9364 -81.2839 297° West 406 467 43,000  Level Cleveland Center
Mon 05:50:58 PM 40.9897 -81.4222 297° West 406 467 43,000  Level Cleveland Center
Mon 05:51:59 PM 41.0386 -81.5603 295° West 406 467 43,000  Level Cleveland Center
Mon 05:52:58 PM 41.0894 -81.6989 296° West 411 473 43,000  Level Cleveland Center
Mon 05:53:59 PM 41.1422 -81.8267 299° West 421 484 43,000  Level Cleveland Center
Mon 05:54:58 PM 41.1950 -81.9656 297° West 427 491 43,000  Level Cleveland Center
Mon 05:55:58 PM 41.2494 -82.1075 297° West 427 491 43,000  Level Cleveland Center
Mon 05:56:58 PM 41.2972 -82.2608 293° West 433 498 43,000  Level Cleveland Center
Mon 05:57:58 PM 41.3514 -82.4033 297° West 438 504 43,000  Level Cleveland Center
Mon 05:58:58 PM 41.4031 -82.5514 295° West 438 504 43,000  Level Cleveland Center
Mon 05:59:59 PM 41.4628 -82.7083 297° West 443 510 43,000  Level Cleveland Center
Mon 06:00:58 PM 41.5142 -82.8569 295° West 443 510 43,000  Level Cleveland Center
Mon 06:01:58 PM 41.5675 -83.0033 296° West 443 510 43,000  Level Cleveland Center
Mon 06:02:59 PM 41.6186 -83.1497 295° West 438 504 43,000  Level Cleveland Center
Mon 06:03:59 PM 41.6694 -83.2961 295° West 438 504 43,000  Level Cleveland Center
Mon 06:04:58 PM 41.7200 -83.4431 295° West 438 504 43,000  Level Cleveland Center
Mon 06:05:58 PM 41.7725 -83.5931 295° West 443 510 43,000  Level Cleveland Center
Mon 06:06:58 PM 41.8247 -83.7375 296° West 443 510 43,000  Level Cleveland Center
Mon 06:07:58 PM 41.8769 -83.8881 295° West 443 510 43,000  Level Cleveland Center
Mon 06:08:59 PM 41.9267 -84.0358 294° West 443 510 43,000  Level Cleveland Center
Mon 06:09:58 PM 41.9764 -84.1864 294° West 443 510 43,000  Level Cleveland Center
Mon 06:10:58 PM 42.0283 -84.3181 298° West 443 510 43,000  Level Cleveland Center
Mon 06:12:20 PM 42.0961 -84.5369 293° West 441 507 43,000  Level Chicago Center
Mon 06:13:22 PM 42.1492 -84.6836 296° West 440 506 43,000  Level Chicago Center
Mon 06:14:24 PM 42.1997 -84.8339 294° West 440 506 43,000  Level Chicago Center
Mon 06:15:27 PM 42.2497 -84.9850 294° West 441 507 43,000  Level Chicago Center
Mon 06:16:29 PM 42.3000 -85.1369 294° West 443 510 43,000  Level Chicago Center
Mon 06:17:31 PM 42.3500 -85.2908 294° West 447 514 43,000  Level Chicago Center
Mon 06:18:34 PM 42.4100 -85.4750 294° West 446 513 43,000  Level Chicago Center
Mon 06:19:34 PM 42.4589 -85.6272 294° West 443 510 43,000  Level Chicago Center
Mon 06:20:37 PM 42.5089 -85.7817 294° West 447 514 43,000  Level Chicago Center
Mon 06:21:39 PM 42.5586 -85.9375 293° West 448 516 43,000  Level Chicago Center
Mon 06:22:41 PM 42.6072 -86.0956 293° West 452 520 43,000  Level Chicago Center
Mon 06:23:43 PM 42.6578 -86.2506 294° West 447 514 43,000  Level Chicago Center
Mon 06:24:45 PM 42.7061 -86.4042 293° West 439 505 43,000  Level Chicago Center
Mon 06:25:47 PM 42.7631 -86.5881 293° West 438 504 43,000  Level Chicago Center
Mon 06:26:49 PM 42.8117 -86.7417 293° West 440 506 43,000  Level Chicago Center
Mon 06:27:51 PM 42.8592 -86.8936 293° West 435 501 43,000  Level Chicago Center
Mon 06:28:53 PM 42.9056 -87.0467 293° West 436 502 43,000  Level Chicago Center
Mon 06:29:55 PM 42.9531 -87.2011 293° West 439 505 43,000  Level Chicago Center
Mon 06:30:57 PM 43.0003 -87.3553 293° West 441 507 43,000  Level Chicago Center
Mon 06:31:59 PM 43.0558 -87.5417 292° West 445 512 43,000  Level Chicago Center
Mon 06:33:01 PM 43.1031 -87.6969 293° West 443 510 43,000  Level Chicago Center
Mon 06:34:03 PM 43.1503 -87.8522 293° West 441 507 43,000  Level Chicago Center
Mon 06:35:05 PM 43.1967 -88.0094 292° West 443 510 43,000  Level Chicago Center
Mon 06:36:07 PM 43.2425 -88.1681 292° West 445 512 43,000  Level Chicago Center
Mon 06:37:09 PM 43.2897 -88.3281 292° West 450 518 43,000  Level Chicago Center
Mon 06:38:11 PM 43.3411 -88.5050 292° West 451 519 43,000  Level Chicago Center
Mon 06:39:13 PM 43.3836 -88.6583 291° West 457 526 43,000  Level Chicago Center
Mon 06:40:15 PM 43.4392 -88.8461 292° West 452 520 43,000  Level Chicago Center
Mon 06:41:17 PM 43.4850 -89.0081 291° West 452 520 43,000  Level Chicago Center
Mon 06:42:20 PM 43.5311 -89.1686 292° West 451 519 43,000  Level Chicago Center
Mon 06:43:22 PM 43.5764 -89.3311 291° West 452 520 43,000  Level Chicago Center
Mon 06:44:24 PM 43.6217 -89.4925 291° West 452 520 43,000  Level Chicago Center
Mon 06:45:26 PM 43.6647 -89.6547 290° West 448 516 43,000  Level Chicago Center
Mon 06:46:28 PM 43.7186 -89.8417 292° West 450 518 43,000  Level Chicago Center
Mon 06:47:30 PM 43.7625 -90.0036 291° West 449 517 43,000  Level Chicago Center
Mon 06:48:32 PM 43.8075 -90.1661 291° West 453 521 43,000  Level Chicago Center
Mon 06:49:12 PM 43.8353 -90.2722 290° West 446 513 43,000  Level Minneapolis Center
Mon 06:50:14 PM 43.8792 -90.4353 291° West 450 518 43,000  Level Minneapolis Center
Mon 06:50:36 PM 43.8903 -90.4833 288° West 449 517 43,000  Level Chicago Center
Mon 06:51:38 PM 43.9428 -90.6769 291° West 452 520 43,000  Level Chicago Center
Mon 06:52:18 PM 43.9689 -90.7725 291° West 450 518 43,000  Level Minneapolis Center
Mon 06:53:20 PM 44.0106 -90.9306 290° West 445 512 43,000  Level Minneapolis Center
Mon 06:54:22 PM 44.0531 -91.0917 290° West 448 516 43,000  Level Minneapolis Center
Mon 06:55:24 PM 44.1039 -91.2864 290° West 451 519 43,000  Level Minneapolis Center
Mon 06:56:26 PM 44.1464 -91.4536 290° West 450 518 43,000  Level Minneapolis Center
Mon 06:57:28 PM 44.1894 -91.6186 290° West 453 521 43,000  Level Minneapolis Center
Mon 06:58:30 PM 44.2311 -91.7844 289° West 455 524 43,000  Level Minneapolis Center
Mon 06:59:32 PM 44.2736 -91.9511 290° West 457 526 43,000  Level Minneapolis Center
Mon 07:00:33 PM 44.3072 -92.0847 289° West 458 527 43,000  Level Minneapolis Center
Mon 07:01:36 PM 44.3650 -92.3189 289° West 458 527 43,000  Level Minneapolis Center
Mon 07:02:38 PM 44.4056 -92.4867 289° West 457 526 43,000  Level Minneapolis Center
Mon 07:03:40 PM 44.4461 -92.6556 289° West 459 528 43,000  Level Minneapolis Center
Mon 07:04:42 PM 44.4867 -92.8222 289° West 454 522 43,000  Level Minneapolis Center
Mon 07:05:44 PM 44.5283 -92.9917 289° West 458 527 43,000  Level Minneapolis Center
Mon 07:06:46 PM 44.5686 -93.1631 288° West 459 528 43,000  Level Minneapolis Center
Mon 07:07:48 PM 44.6097 -93.3367 288° West 460 529 43,000  Level Minneapolis Center
Mon 07:09:02 PM 44.6506 -93.5108 288° West 462 532 43,000  Level Minneapolis Center
Mon 07:10:05 PM 44.7072 -93.7494 289° West 459 528 43,000  Level Minneapolis Center
Mon 07:11:07 PM 44.7469 -93.9208 288° West 461 531 43,000  Level Minneapolis Center
Mon 07:12:09 PM 44.7872 -94.0919 288° West 461 531 43,000  Level Minneapolis Center
Mon 07:13:11 PM 44.8253 -94.2628 287° West 461 531 43,000  Level Minneapolis Center
Mon 07:14:13 PM 44.8642 -94.4350 288° West 461 531 43,000  Level Minneapolis Center
Mon 07:15:15 PM 44.9011 -94.6058 287° West 458 527 43,000  Level Minneapolis Center
Mon 07:16:17 PM 44.9494 -94.8150 288° West 456 525 43,000  Level Minneapolis Center
Mon 07:17:19 PM 44.9858 -94.9867 287° West 458 527 43,000  Level Minneapolis Center
Mon 07:18:21 PM 45.0236 -95.1567 288° West 457 526 43,000  Level Minneapolis Center
Mon 07:19:23 PM 45.0606 -95.3261 287° West 455 524 43,000  Level Minneapolis Center
Mon 07:20:25 PM 45.0958 -95.4958 286° West 453 521 43,000  Level Minneapolis Center
Mon 07:21:27 PM 45.1331 -95.6692 287° West 460 529 43,000  Level Minneapolis Center
Mon 07:22:30 PM 45.1772 -95.8744 287° West 458 527 43,000  Level Minneapolis Center
Mon 07:23:32 PM 45.2117 -96.0469 286° West 458 527 43,000  Level Minneapolis Center
Mon 07:24:34 PM 45.2483 -96.2197 287° West 460 529 43,000  Level Minneapolis Center
Mon 07:25:36 PM 45.2844 -96.3931 287° West 461 531 43,000  Level Minneapolis Center
Mon 07:26:50 PM 45.3211 -96.5661 287° West 460 529 43,000  Level Minneapolis Center
Mon 07:27:52 PM 45.3692 -96.8106 286° West 462 532 43,000  Level Minneapolis Center
Mon 07:28:54 PM 45.4039 -96.9847 286° West 463 533 43,000  Level Minneapolis Center
Mon 07:29:56 PM 45.4311 -97.1250 286° West 461 531 43,000  Level Minneapolis Center
Mon 07:30:59 PM 45.4719 -97.3367 285° West 463 533 43,000  Level Minneapolis Center
Mon 07:32:01 PM 45.5069 -97.5147 286° West 467 537 43,000  Level Minneapolis Center
Mon 07:33:02 PM 45.5419 -97.6906 286° West 466 536 43,000  Level Minneapolis Center
Mon 07:34:05 PM 45.5811 -97.9039 285° West 465 535 43,000  Level Minneapolis Center
Mon 07:35:06 PM 45.6094 -98.0447 286° West 465 535 43,000  Level Minneapolis Center
Mon 07:36:09 PM 45.6519 -98.2683 285° West 467 537 43,000  Level Minneapolis Center
Mon 07:37:11 PM 45.6850 -98.4467 285° West 467 537 43,000  Level Minneapolis Center
Mon 07:38:15 PM 45.7181 -98.6264 285° West 468 539 43,000  Level Minneapolis Center
Mon 07:39:17 PM 45.7550 -98.8414 284° West 467 537 43,000  Level Minneapolis Center
Mon 07:40:19 PM 45.7883 -99.0228 285° West 470 541 43,000  Level Minneapolis Center
Mon 07:41:21 PM 45.8203 -99.2058 284° West 473 544 43,000  Level Minneapolis Center
Mon 07:42:23 PM 45.8531 -99.3894 284° West 476 548 43,000  Level Minneapolis Center
Mon 07:43:25 PM 45.8842 -99.5733 284° West 477 549 43,000  Level Minneapolis Center
Mon 07:44:27 PM 45.9153 -99.7553 284° West 476 548 43,000  Level Minneapolis Center
Mon 07:45:29 PM 45.9528 -99.9750 284° West 474 545 43,000  Level Minneapolis Center
Mon 07:46:31 PM 45.9825 -100.1564 283° West 472 543 43,000  Level Minneapolis Center
Mon 07:47:33 PM 46.0147 -100.3425 284° West 479 551 43,000  Level Minneapolis Center
Mon 07:48:35 PM 46.0433 -100.5256 283° West 475 547 43,000  Level Minneapolis Center
Mon 07:49:37 PM 46.0736 -100.7089 283° West 473 544 43,000  Level Minneapolis Center
Mon 07:50:39 PM 46.1103 -100.9331 283° West 479 551 43,000  Level Minneapolis Center
Mon 07:51:41 PM 46.1383 -101.1197 282° West 478 550 43,000  Level Minneapolis Center
Mon 07:52:43 PM 46.1683 -101.3081 283° West 482 555 43,000  Level Minneapolis Center
Mon 07:53:57 PM 46.1972 -101.4944 283° West 480 552 43,000  Level Minneapolis Center
Mon 07:54:59 PM 46.2269 -101.6797 283° West 477 549 43,000  Level Minneapolis Center
Mon 07:56:02 PM 46.2608 -101.9028 282° West 476 548 43,000  Level Minneapolis Center
Mon 07:57:04 PM 46.2933 -102.1103 283° West 473 544 43,000  Level Minneapolis Center
Mon 07:58:06 PM 46.3214 -102.2936 283° West 471 542 43,000  Level Minneapolis Center
Mon 07:59:07 PM 46.3481 -102.4803 282° West 472 543 43,000  Level Minneapolis Center
Mon 08:00:09 PM 46.3744 -102.6661 282° West 472 543 43,000  Level Minneapolis Center
Mon 08:01:11 PM 46.3994 -102.8528 281° West 473 544 43,000 -48 Level Minneapolis Center
Mon 08:02:13 PM 46.4306 -103.0758 282° West 472 543 42,900  Descending Minneapolis Center
Mon 08:03:15 PM 46.4547 -103.2622 281° West 471 542 43,000 49 Climbing Salt Lake Center
Mon 08:04:16 PM 46.4803 -103.4489 281° West 470 541 43,000  Level Salt Lake Center
Mon 08:05:18 PM 46.5053 -103.6367 281° West 471 542 43,000 -48 Level Salt Lake Center
Mon 08:06:20 PM 46.5303 -103.8233 281° West 472 543 42,900  Descending Salt Lake Center
Mon 08:07:21 PM 46.5550 -104.0128 281° West 474 545 43,000  Climbing Salt Lake Center
Mon 08:08:23 PM 46.5786 -104.2011 280° West 475 547 42,900  Descending Salt Lake Center
Mon 08:09:25 PM 46.6033 -104.3906 281° West 476 548 43,000 49 Climbing Salt Lake Center
Mon 08:10:26 PM 46.6294 -104.6175 280° West 475 547 43,000  Level Salt Lake Center
Mon 08:11:28 PM 46.6544 -104.8083 281° West 476 548 43,000  Level Salt Lake Center
Mon 08:12:30 PM 46.6767 -104.9978 280° West 477 549 43,000  Level Salt Lake Center
Mon 08:13:31 PM 46.6989 -105.1869 280° West 475 547 43,000  Level Salt Lake Center
Mon 08:14:33 PM 46.7222 -105.3783 280° West 478 550 43,000  Level Salt Lake Center
Mon 08:15:35 PM 46.7494 -105.5939 281° West 479 551 43,000  Level Salt Lake Center
Mon 08:16:36 PM 46.7700 -105.7772 279° West 479 551 43,000  Level Salt Lake Center
Mon 08:17:38 PM 46.7939 -105.9872 280° West 475 547 43,000  Level Salt Lake Center
Mon 08:18:40 PM 46.8161 -106.1731 280° West 480 552 43,000  Level Salt Lake Center
Mon 08:19:41 PM 46.8358 -106.3575 279° West 480 552 43,000  Level Salt Lake Center
Mon 08:20:43 PM 46.8600 -106.5728 279° West 482 555 43,000  Level Salt Lake Center
Mon 08:21:45 PM 46.8789 -106.7567 279° West 480 552 43,000  Level Salt Lake Center
Mon 08:22:46 PM 46.9006 -106.9736 278° West 483 556 43,000  Level Salt Lake Center
Mon 08:23:48 PM 46.9197 -107.1578 279° West 482 555 43,000  Level Salt Lake Center
Mon 08:24:49 PM 46.9417 -107.3706 279° West 477 549 43,000  Level Salt Lake Center
Mon 08:25:51 PM 46.9583 -107.5544 278° West 476 548 43,000  Level Salt Lake Center
Mon 08:26:53 PM 46.9772 -107.7375 279° West 477 549 43,000  Level Salt Lake Center
Mon 08:27:54 PM 46.9969 -107.9511 278° West 476 548 43,000  Level Salt Lake Center
Mon 08:28:56 PM 47.0142 -108.1339 278° West 474 545 43,000  Level Salt Lake Center
Mon 08:29:57 PM 47.0336 -108.3472 278° West 474 545 43,000  Level Salt Lake Center
Mon 08:30:59 PM 47.0506 -108.5303 278° West 475 547 43,000  Level Salt Lake Center
Mon 08:32:01 PM 47.0692 -108.7442 277° West 475 547 43,000  Level Salt Lake Center
Mon 08:33:02 PM 47.0847 -108.9294 277° West 477 549 43,000  Level Salt Lake Center
Mon 08:34:04 PM 47.1006 -109.1172 277° West 475 547 43,000  Level Salt Lake Center
Mon 08:35:06 PM 47.1169 -109.3092 277° West 476 548 43,000  Level Salt Lake Center
Mon 08:36:07 PM 47.1319 -109.5014 277° West 475 547 43,000  Level Salt Lake Center
Mon 08:37:09 PM 47.1475 -109.6936 277° West 474 545 43,000  Level Salt Lake Center
Mon 08:38:10 PM 47.1658 -109.9256 277° West 476 548 43,000  Level Salt Lake Center
Mon 08:39:12 PM 47.1800 -110.1183 276° West 476 548 43,000  Level Salt Lake Center
Mon 08:40:14 PM 47.1947 -110.3125 276° West 477 549 43,000  Level Salt Lake Center
Mon 08:41:15 PM 47.2078 -110.5053 276° West 475 547 43,000  Level Salt Lake Center
Mon 08:42:17 PM 47.2217 -110.7011 276° West 480 552 43,000  Level Salt Lake Center
Mon 08:43:18 PM 47.2347 -110.8967 276° West 480 552 43,000  Level Salt Lake Center
Mon 08:44:20 PM 47.2469 -111.0911 275° West 477 549 43,000  Level Salt Lake Center
Mon 08:45:22 PM 47.2594 -111.2894 275° West 481 554 43,000 -49 Level Salt Lake Center
Mon 08:46:23 PM 47.2717 -111.4881 275° West 483 556 42,900  Descending Salt Lake Center
Mon 08:47:25 PM 47.2869 -111.7228 276° West 479 551 43,000 48 Climbing Salt Lake Center
Mon 08:48:27 PM 47.2992 -111.9203 275° West 481 554 43,000  Level Salt Lake Center
Mon 08:49:28 PM 47.3106 -112.1183 275° West 483 556 43,000  Level Salt Lake Center
Mon 08:50:30 PM 47.3206 -112.3153 274° West 483 556 43,000  Level Salt Lake Center
Mon 08:51:32 PM 47.3311 -112.5103 275° West 480 552 43,000  Level Salt Lake Center
Mon 08:52:33 PM 47.3414 -112.7058 275° West 479 551 43,000  Level Salt Lake Center
Mon 08:53:35 PM 47.3519 -112.9031 275° West 481 554 43,000  Level Salt Lake Center
Mon 08:54:36 PM 47.3639 -113.1133 275° West 484 557 43,000  Level Salt Lake Center
Mon 08:55:38 PM 47.3725 -113.3133 274° West 489 563 43,000  Level Salt Lake Center
Mon 08:56:39 PM 47.3817 -113.5119 274° West 487 560 43,000  Level Salt Lake Center
Mon 08:57:41 PM 47.3897 -113.7097 274° West 484 557 43,000  Level Salt Lake Center
Mon 08:58:42 PM 47.3989 -113.9081 274° West 483 556 43,000  Level Salt Lake Center
Mon 08:59:44 PM 47.4083 -114.1433 273° West 478 550 43,000  Level Salt Lake Center
Mon 09:00:45 PM 47.4150 -114.3411 273° West 479 551 43,000  Level Salt Lake Center
Mon 09:01:06 PM 47.4161 -114.3819 272° West 481 554 43,000  Level Seattle Center
Mon 09:02:07 PM 47.4233 -114.5792 273° West 479 551 43,000  Level Seattle Center
Mon 09:02:48 PM 47.4303 -114.7367 274° West 480 552 43,000  Level Salt Lake Center
Mon 09:03:50 PM 47.4364 -114.9356 273° West 482 555 43,000  Level Salt Lake Center
Mon 09:04:09 PM 47.4394 -115.0158 273° West 483 556 43,000  Level Seattle Center
Mon 09:05:10 PM 47.4453 -115.2136 273° West 482 555 43,000  Level Seattle Center
Mon 09:06:11 PM 47.4503 -115.4075 272° West 475 547 43,000  Level Seattle Center
Mon 09:07:12 PM 47.4558 -115.5969 273° West 466 536 43,000  Level Seattle Center
Mon 09:08:13 PM 47.4656 -115.7869 274° West 460 529 43,000  Level Seattle Center
Mon 09:09:13 PM 47.4767 -115.9675 275° West 447 514 43,000  Level Seattle Center
Mon 09:10:14 PM 47.4872 -116.1506 275° West 449 517 43,000  Level Seattle Center
Mon 09:11:15 PM 47.4981 -116.3356 275° West 453 521 43,000  Level Seattle Center
Mon 09:12:16 PM 47.5086 -116.5192 275° West 449 517 43,000  Level Seattle Center
Mon 09:13:17 PM 47.5186 -116.7089 275° West 462 532 43,000  Level Seattle Center
Mon 09:14:18 PM 47.5292 -116.9000 275° West 467 537 43,000  Level Seattle Center
Mon 09:15:19 PM 47.5383 -117.0889 274° West 468 539 43,000  Level Seattle Center
Mon 09:16:20 PM 47.5478 -117.2914 274° West 456 525 43,000  Level Seattle Center
Mon 09:17:21 PM 47.5572 -117.4747 274° West 448 516 43,000  Level Seattle Center
Mon 09:18:22 PM 47.5669 -117.6569 275° West 446 513 43,000  Level Seattle Center
Mon 09:19:23 PM 47.5858 -117.8364 279° West 443 510 43,000  Level Seattle Center
Mon 09:20:24 PM 47.6025 -118.0169 278° West 444 511 43,000  Level Seattle Center
Mon 09:21:25 PM 47.6194 -118.2000 278° West 448 516 43,000  Level Seattle Center
Mon 09:22:25 PM 47.6361 -118.3817 278° West 447 514 43,000  Level Seattle Center
Mon 09:23:26 PM 47.6506 -118.5631 277° West 446 513 43,000  Level Seattle Center
Mon 09:24:27 PM 47.6664 -118.7481 277° West 452 520 43,000 -1,016 Level Seattle Center
Mon 09:26:00 PM 47.6846 -119.0280 279° West  Level FlightAware Approximate
Mon 09:26:29 PM 47.7017 -119.1544 279° West 447 514 39,900  Level Seattle Center
Mon 09:27:30 PM 47.7389 -119.3236 288° West 445 512 37,800 -2,016 Descending Seattle Center
Mon 09:28:31 PM 47.8494 -119.4278 328° Northwest 478 550 35,800 -1,377 Descending Seattle Center
Mon 09:29:32 PM 47.9322 -119.5731 310° West 476 548 35,000 -1,426 Descending Seattle Center
Mon 09:31:00 PM 47.8967 -119.8346 270° West  Level Estimated
Mon 09:32:35 PM 47.9181 -120.1186 277° West 466 536 30,000  Level Seattle Center
Mon 09:33:36 PM 47.9069 -120.3114 265° West 468 539 27,100 -2,803 Descending Seattle Center
Mon 09:34:37 PM 47.8978 -120.4992 266° West 461 531 24,300 -2,557 Descending Seattle Center
Mon 09:35:38 PM 47.8892 -120.6769 266° West 440 506 21,900 -2,459 Descending Seattle Center
Mon 09:36:39 PM 47.8778 -120.8578 265° West 434 499 19,300 -2,459 Descending Seattle Center
Mon 09:37:40 PM 47.8647 -121.0317 264° West 428 493 16,900 -2,361 Descending Seattle Center
Mon 09:38:00 PM 47.7192 -121.0779 277° West  Level Estimated
Mon 09:38:41 PM 47.8556 -121.2064 266° West 340 391 14,500  Level Seattle Center
Mon 09:39:42 PM 47.8625 -121.3272 275° West 296 341 12,800 -1,672 Descending Seattle Center
Mon 09:40:43 PM 47.8700 -121.4461 275° West 293 337 11,100 -844 Descending Seattle Center
Mon 09:41:50 PM 47.8778 -121.5872 275° West 296 341 11,000 -197 Descending Seattle Center
Mon 09:42:45 PM 47.8828 -121.6867 274° West 296 341 10,700 -1,241 Descending Seattle Center
Mon 09:43:46 PM 47.8364 -121.7714 231° Southwest 269 310 8,600 -2,164 Descending Seattle Center
Mon 09:44:47 PM 47.7808 -121.8700 230° Southwest 270 311 6,300 -2,016 Descending Seattle Center
Mon 09:45:48 PM 47.7692 -121.9803 261° West 271 312 4,500 -1,574 Descending Seattle Center
Mon 09:46:49 PM 47.7558 -122.0864 259° West 263 303 3,100 -1,131 Descending Seattle Center
Mon 09:47:50 PM 47.7442 -122.1858 260° West 248 285 2,200 -684 Descending Seattle Center
Mon 09:48:08 PM 47.7425 -122.2158 265° West 223 257 2,200  Level Seattle Center
Mon 09:48:51 PM 47.7331 -122.2761 257° West 224 258 2,200  Level Seattle Center
Mon 09:50:03 PM 47.7211 -122.3858 261° West 215 247 2,200  Level Seattle Center
Mon 09:51:04 PM 47.6769 -122.4233 210° Southwest 196 226 2,200  Level Seattle Center
Mon 09:51:54 PM 47.6386 -122.3956 154° Southeast 195 224 2,200 -385 Level Seattle Center
Mon 09:52:53 PM 47.6025 -122.3658 151° Southeast 131 151 1,500 -700 Descending Seattle Center
Mon 09:53:54 PM 47.5708 -122.3372 149° Southeast 135 155 800 -590 Descending Seattle Center
Mon 09:54:55 PM 47.5450 -122.3056 140° Southeast 144 166 300 -492 Descending Seattle Center
Mon 09:56:00 PM 47.5300 -122.3020 247° West  Level Estimated
Mon 10:03:00 PM 47.5300 -122.3020 247° West  Level Estimated

Login

Don't have an account? Register now (free) for customized features, flight alerts, and more!